sensor_id;sensor_type;location;lat;lon;timestamp;temperature;humidity
59007;DHT22;44792;52.760;6.726;2023-06-14T00:01:52;18.10;83.90
59007;DHT22;44792;52.760;6.726;2023-06-14T00:04:18;18.20;83.90
59007;DHT22;44792;52.760;6.726;2023-06-14T00:06:46;18.00;84.40
59007;DHT22;44792;52.760;6.726;2023-06-14T00:09:12;18.00;84.80
59007;DHT22;44792;52.760;6.726;2023-06-14T00:11:39;17.90;84.60
59007;DHT22;44792;52.760;6.726;2023-06-14T00:14:05;17.90;84.90
59007;DHT22;44792;52.760;6.726;2023-06-14T00:16:31;17.80;85.20
59007;DHT22;44792;52.760;6.726;2023-06-14T00:18:59;17.80;85.40
59007;DHT22;44792;52.760;6.726;2023-06-14T00:21:25;17.70;85.70
59007;DHT22;44792;52.760;6.726;2023-06-14T00:23:50;17.70;85.80
59007;DHT22;44792;52.760;6.726;2023-06-14T00:26:19;17.70;86.00
59007;DHT22;44792;52.760;6.726;2023-06-14T00:28:44;17.70;85.70
59007;DHT22;44792;52.760;6.726;2023-06-14T00:31:10;17.60;86.00
59007;DHT22;44792;52.760;6.726;2023-06-14T00:33:36;17.60;86.30
59007;DHT22;44792;52.760;6.726;2023-06-14T00:36:01;17.50;86.50
59007;DHT22;44792;52.760;6.726;2023-06-14T00:38:27;17.50;86.80
59007;DHT22;44792;52.760;6.726;2023-06-14T00:40:53;17.40;87.10
59007;DHT22;44792;52.760;6.726;2023-06-14T00:43:19;17.40;87.30
59007;DHT22;44792;52.760;6.726;2023-06-14T00:45:44;17.30;87.30
59007;DHT22;44792;52.760;6.726;2023-06-14T00:48:11;17.30;87.30
59007;DHT22;44792;52.760;6.726;2023-06-14T00:50:37;17.30;87.60
59007;DHT22;44792;52.760;6.726;2023-06-14T00:53:07;17.30;87.50
59007;DHT22;44792;52.760;6.726;2023-06-14T00:55:33;17.20;87.80
59007;DHT22;44792;52.760;6.726;2023-06-14T00:57:59;17.20;88.10
59007;DHT22;44792;52.760;6.726;2023-06-14T01:00:25;17.10;87.90
59007;DHT22;44792;52.760;6.726;2023-06-14T01:02:51;17.10;88.70
59007;DHT22;44792;52.760;6.726;2023-06-14T01:05:17;17.00;88.30
59007;DHT22;44792;52.760;6.726;2023-06-14T01:13:32;17.00;89.50
59007;DHT22;44792;52.760;6.726;2023-06-14T01:15:59;16.90;89.30
59007;DHT22;44792;52.760;6.726;2023-06-14T01:18:25;16.90;89.90
59007;DHT22;44792;52.760;6.726;2023-06-14T01:20:55;16.80;90.00
59007;DHT22;44792;52.760;6.726;2023-06-14T01:23:24;16.80;89.40
59007;DHT22;44792;52.760;6.726;2023-06-14T01:25:50;16.80;90.10
59007;DHT22;44792;52.760;6.726;2023-06-14T01:28:21;16.70;90.40
59007;DHT22;44792;52.760;6.726;2023-06-14T01:30:50;16.60;90.60
59007;DHT22;44792;52.760;6.726;2023-06-14T01:33:26;16.60;90.70
59007;DHT22;44792;52.760;6.726;2023-06-14T01:35:55;16.60;90.80
59007;DHT22;44792;52.760;6.726;2023-06-14T01:38:26;16.50;90.70
59007;DHT22;44792;52.760;6.726;2023-06-14T01:40:54;16.40;91.00
59007;DHT22;44792;52.760;6.726;2023-06-14T01:43:21;16.40;91.00
59007;DHT22;44792;52.760;6.726;2023-06-14T01:45:48;16.40;91.20
59007;DHT22;44792;52.760;6.726;2023-06-14T01:48:15;16.30;91.10
59007;DHT22;44792;52.760;6.726;2023-06-14T01:50:41;16.30;91.60
59007;DHT22;44792;52.760;6.726;2023-06-14T01:53:08;16.20;91.50
59007;DHT22;44792;52.760;6.726;2023-06-14T01:55:34;16.10;91.30
59007;DHT22;44792;52.760;6.726;2023-06-14T01:58:03;16.20;91.90
59007;DHT22;44792;52.760;6.726;2023-06-14T02:00:29;16.10;91.60
59007;DHT22;44792;52.760;6.726;2023-06-14T02:02:55;16.10;92.00
59007;DHT22;44792;52.760;6.726;2023-06-14T02:05:21;16.00;92.10
59007;DHT22;44792;52.760;6.726;2023-06-14T02:07:47;16.00;92.30
59007;DHT22;44792;52.760;6.726;2023-06-14T02:10:13;15.90;92.40
59007;DHT22;44792;52.760;6.726;2023-06-14T02:12:40;15.80;92.90
59007;DHT22;44792;52.760;6.726;2023-06-14T02:15:06;15.90;92.80
59007;DHT22;44792;52.760;6.726;2023-06-14T02:17:32;15.70;92.90
59007;DHT22;44792;52.760;6.726;2023-06-14T02:19:59;15.80;92.60
59007;DHT22;44792;52.760;6.726;2023-06-14T02:22:25;15.70;92.80
59007;DHT22;44792;52.760;6.726;2023-06-14T02:24:53;15.70;92.90
59007;DHT22;44792;52.760;6.726;2023-06-14T02:27:19;15.70;93.10
59007;DHT22;44792;52.760;6.726;2023-06-14T02:29:45;15.60;93.30
59007;DHT22;44792;52.760;6.726;2023-06-14T02:32:10;15.70;93.50
59007;DHT22;44792;52.760;6.726;2023-06-14T02:34:36;15.60;93.30
59007;DHT22;44792;52.760;6.726;2023-06-14T02:37:02;15.60;93.10
59007;DHT22;44792;52.760;6.726;2023-06-14T02:39:29;15.60;93.90
59007;DHT22;44792;52.760;6.726;2023-06-14T02:41:55;15.60;93.80
59007;DHT22;44792;52.760;6.726;2023-06-14T02:44:25;15.50;94.20
59007;DHT22;44792;52.760;6.726;2023-06-14T02:46:52;15.40;94.20
59007;DHT22;44792;52.760;6.726;2023-06-14T02:49:22;15.40;94.30
59007;DHT22;44792;52.760;6.726;2023-06-14T02:51:48;15.40;94.20
59007;DHT22;44792;52.760;6.726;2023-06-14T02:54:13;15.40;94.20
59007;DHT22;44792;52.760;6.726;2023-06-14T02:56:39;15.40;94.60
59007;DHT22;44792;52.760;6.726;2023-06-14T02:59:06;15.40;94.80
59007;DHT22;44792;52.760;6.726;2023-06-14T03:01:33;15.30;94.60
59007;DHT22;44792;52.760;6.726;2023-06-14T03:04:07;15.30;94.60
59007;DHT22;44792;52.760;6.726;2023-06-14T03:06:33;15.30;95.10
59007;DHT22;44792;52.760;6.726;2023-06-14T03:09:00;15.20;94.90
59007;DHT22;44792;52.760;6.726;2023-06-14T03:11:26;15.20;95.30
59007;DHT22;44792;52.760;6.726;2023-06-14T03:13:53;15.20;95.40
59007;DHT22;44792;52.760;6.726;2023-06-14T03:16:19;15.20;95.10
59007;DHT22;44792;52.760;6.726;2023-06-14T03:18:46;15.20;95.70
59007;DHT22;44792;52.760;6.726;2023-06-14T03:21:11;15.20;95.30
59007;DHT22;44792;52.760;6.726;2023-06-14T03:23:37;15.10;95.80
59007;DHT22;44792;52.760;6.726;2023-06-14T03:26:03;15.10;95.50
59007;DHT22;44792;52.760;6.726;2023-06-14T03:28:28;15.10;95.80
59007;DHT22;44792;52.760;6.726;2023-06-14T03:30:54;15.10;95.60
59007;DHT22;44792;52.760;6.726;2023-06-14T03:33:20;15.20;95.80
59007;DHT22;44792;52.760;6.726;2023-06-14T03:35:46;15.10;96.00
59007;DHT22;44792;52.760;6.726;2023-06-14T03:38:12;15.10;96.60
59007;DHT22;44792;52.760;6.726;2023-06-14T03:40:38;15.10;96.00
59007;DHT22;44792;52.760;6.726;2023-06-14T03:43:06;15.10;96.20
59007;DHT22;44792;52.760;6.726;2023-06-14T03:45:32;15.10;96.70
59007;DHT22;44792;52.760;6.726;2023-06-14T03:47:58;15.20;96.10
59007;DHT22;44792;52.760;6.726;2023-06-14T03:50:26;15.20;96.50
59007;DHT22;44792;52.760;6.726;2023-06-14T03:52:52;15.30;96.70
59007;DHT22;44792;52.760;6.726;2023-06-14T03:55:18;15.40;96.50
59007;DHT22;44792;52.760;6.726;2023-06-14T03:57:44;15.40;96.50
59007;DHT22;44792;52.760;6.726;2023-06-14T04:00:10;15.40;96.50
59007;DHT22;44792;52.760;6.726;2023-06-14T04:02:38;15.40;96.50
59007;DHT22;44792;52.760;6.726;2023-06-14T04:05:04;15.50;96.40
59007;DHT22;44792;52.760;6.726;2023-06-14T04:07:34;15.70;96.20
59007;DHT22;44792;52.760;6.726;2023-06-14T04:10:06;15.70;96.30
59007;DHT22;44792;52.760;6.726;2023-06-14T04:12:33;15.80;96.20
59007;DHT22;44792;52.760;6.726;2023-06-14T04:14:58;15.90;96.30
59007;DHT22;44792;52.760;6.726;2023-06-14T04:17:24;15.90;96.20
59007;DHT22;44792;52.760;6.726;2023-06-14T04:19:50;16.00;96.10
59007;DHT22;44792;52.760;6.726;2023-06-14T04:22:16;16.10;95.80
59007;DHT22;44792;52.760;6.726;2023-06-14T04:24:41;16.30;95.70
59007;DHT22;44792;52.760;6.726;2023-06-14T04:27:08;16.30;95.90
59007;DHT22;44792;52.760;6.726;2023-06-14T04:29:33;16.40;95.70
59007;DHT22;44792;52.760;6.726;2023-06-14T04:31:59;16.40;96.00
59007;DHT22;44792;52.760;6.726;2023-06-14T04:34:26;16.60;95.70
59007;DHT22;44792;52.760;6.726;2023-06-14T04:36:58;16.70;95.50
59007;DHT22;44792;52.760;6.726;2023-06-14T04:39:25;16.80;95.90
59007;DHT22;44792;52.760;6.726;2023-06-14T04:41:52;16.80;95.50
59007;DHT22;44792;52.760;6.726;2023-06-14T04:44:19;16.90;95.50
59007;DHT22;44792;52.760;6.726;2023-06-14T04:46:45;17.00;95.60
59007;DHT22;44792;52.760;6.726;2023-06-14T04:49:17;17.10;95.50
59007;DHT22;44792;52.760;6.726;2023-06-14T04:51:45;17.40;95.10
59007;DHT22;44792;52.760;6.726;2023-06-14T04:54:12;17.50;95.00
59007;DHT22;44792;52.760;6.726;2023-06-14T04:56:41;17.60;94.50
59007;DHT22;44792;52.760;6.726;2023-06-14T04:59:10;17.70;94.60
59007;DHT22;44792;52.760;6.726;2023-06-14T05:01:40;17.80;94.40
59007;DHT22;44792;52.760;6.726;2023-06-14T05:04:06;17.80;94.30
59007;DHT22;44792;52.760;6.726;2023-06-14T05:06:32;18.00;94.30
59007;DHT22;44792;52.760;6.726;2023-06-14T05:08:58;18.00;94.00
59007;DHT22;44792;52.760;6.726;2023-06-14T05:11:24;18.20;93.60
59007;DHT22;44792;52.760;6.726;2023-06-14T05:13:50;18.30;93.80
59007;DHT22;44792;52.760;6.726;2023-06-14T05:16:16;18.50;93.90
59007;DHT22;44792;52.760;6.726;2023-06-14T05:18:45;18.60;93.80
59007;DHT22;44792;52.760;6.726;2023-06-14T05:21:12;18.60;93.70
59007;DHT22;44792;52.760;6.726;2023-06-14T05:23:38;18.70;93.70
59007;DHT22;44792;52.760;6.726;2023-06-14T05:26:04;18.70;93.70
59007;DHT22;44792;52.760;6.726;2023-06-14T05:28:32;18.80;93.30
59007;DHT22;44792;52.760;6.726;2023-06-14T05:30:57;18.90;93.50
59007;DHT22;44792;52.760;6.726;2023-06-14T05:33:23;19.00;93.20
59007;DHT22;44792;52.760;6.726;2023-06-14T05:35:49;19.10;93.10
59007;DHT22;44792;52.760;6.726;2023-06-14T05:38:15;19.10;92.80
59007;DHT22;44792;52.760;6.726;2023-06-14T05:40:41;19.20;92.80
59007;DHT22;44792;52.760;6.726;2023-06-14T05:43:06;19.30;92.70
59007;DHT22;44792;52.760;6.726;2023-06-14T05:45:32;19.40;92.60
59007;DHT22;44792;52.760;6.726;2023-06-14T05:47:58;19.40;92.50
59007;DHT22;44792;52.760;6.726;2023-06-14T05:50:24;19.50;92.60
59007;DHT22;44792;52.760;6.726;2023-06-14T05:52:49;19.50;92.50
59007;DHT22;44792;52.760;6.726;2023-06-14T05:55:16;19.50;92.50
59007;DHT22;44792;52.760;6.726;2023-06-14T05:57:42;19.20;92.20
59007;DHT22;44792;52.760;6.726;2023-06-14T06:00:08;19.00;92.20
59007;DHT22;44792;52.760;6.726;2023-06-14T06:02:43;18.90;92.70
59007;DHT22;44792;52.760;6.726;2023-06-14T06:05:13;19.00;92.20
59007;DHT22;44792;52.760;6.726;2023-06-14T06:07:39;19.00;92.50
59007;DHT22;44792;52.760;6.726;2023-06-14T06:10:11;19.20;92.60
59007;DHT22;44792;52.760;6.726;2023-06-14T06:12:37;19.30;92.60
59007;DHT22;44792;52.760;6.726;2023-06-14T06:15:03;19.30;92.40
59007;DHT22;44792;52.760;6.726;2023-06-14T06:17:29;19.30;92.40
59007;DHT22;44792;52.760;6.726;2023-06-14T06:19:55;19.40;92.40
59007;DHT22;44792;52.760;6.726;2023-06-14T06:22:21;19.30;91.90
59007;DHT22;44792;52.760;6.726;2023-06-14T06:24:47;19.40;91.80
59007;DHT22;44792;52.760;6.726;2023-06-14T06:27:13;19.40;91.90
59007;DHT22;44792;52.760;6.726;2023-06-14T06:29:41;19.50;92.10
59007;DHT22;44792;52.760;6.726;2023-06-14T06:32:07;19.50;91.80
59007;DHT22;44792;52.760;6.726;2023-06-14T06:34:33;19.50;91.50
59007;DHT22;44792;52.760;6.726;2023-06-14T06:36:59;19.60;91.30
59007;DHT22;44792;52.760;6.726;2023-06-14T06:39:24;19.80;91.50
59007;DHT22;44792;52.760;6.726;2023-06-14T06:41:50;19.70;91.40
59007;DHT22;44792;52.760;6.726;2023-06-14T06:44:16;19.70;91.20
59007;DHT22;44792;52.760;6.726;2023-06-14T06:46:43;19.70;90.90
59007;DHT22;44792;52.760;6.726;2023-06-14T06:49:09;20.00;91.00
59007;DHT22;44792;52.760;6.726;2023-06-14T06:51:40;20.00;91.00
59007;DHT22;44792;52.760;6.726;2023-06-14T06:54:07;20.00;90.70
59007;DHT22;44792;52.760;6.726;2023-06-14T06:56:34;20.00;90.70
59007;DHT22;44792;52.760;6.726;2023-06-14T06:58:59;20.00;90.80
59007;DHT22;44792;52.760;6.726;2023-06-14T07:01:25;20.20;90.70
59007;DHT22;44792;52.760;6.726;2023-06-14T07:03:51;20.40;91.00
59007;DHT22;44792;52.760;6.726;2023-06-14T07:06:17;20.40;90.90
59007;DHT22;44792;52.760;6.726;2023-06-14T07:08:44;20.60;90.60
59007;DHT22;44792;52.760;6.726;2023-06-14T07:11:10;20.60;90.00
59007;DHT22;44792;52.760;6.726;2023-06-14T07:13:36;20.60;90.20
59007;DHT22;44792;52.760;6.726;2023-06-14T07:16:03;20.80;90.20
59007;DHT22;44792;52.760;6.726;2023-06-14T07:18:29;20.80;90.00
59007;DHT22;44792;52.760;6.726;2023-06-14T07:20:56;20.80;89.20
59007;DHT22;44792;52.760;6.726;2023-06-14T07:23:23;20.70;89.70
59007;DHT22;44792;52.760;6.726;2023-06-14T07:25:48;20.60;89.60
59007;DHT22;44792;52.760;6.726;2023-06-14T07:28:15;20.70;89.70
59007;DHT22;44792;52.760;6.726;2023-06-14T07:30:41;20.90;89.50
59007;DHT22;44792;52.760;6.726;2023-06-14T07:33:07;20.90;90.00
59007;DHT22;44792;52.760;6.726;2023-06-14T07:35:34;21.00;88.80
59007;DHT22;44792;52.760;6.726;2023-06-14T07:37:59;20.90;89.50
59007;DHT22;44792;52.760;6.726;2023-06-14T07:40:25;20.90;89.80
59007;DHT22;44792;52.760;6.726;2023-06-14T07:42:51;21.00;89.00
59007;DHT22;44792;52.760;6.726;2023-06-14T07:45:17;21.00;88.90
59007;DHT22;44792;52.760;6.726;2023-06-14T07:47:43;21.00;87.90
59007;DHT22;44792;52.760;6.726;2023-06-14T07:50:09;21.20;88.00
59007;DHT22;44792;52.760;6.726;2023-06-14T07:52:35;21.20;88.00
59007;DHT22;44792;52.760;6.726;2023-06-14T07:55:01;21.40;89.30
59007;DHT22;44792;52.760;6.726;2023-06-14T07:57:27;21.40;87.70
59007;DHT22;44792;52.760;6.726;2023-06-14T07:59:52;21.60;87.60
59007;DHT22;44792;52.760;6.726;2023-06-14T08:02:18;21.50;87.10
59007;DHT22;44792;52.760;6.726;2023-06-14T08:04:44;21.60;87.10
59007;DHT22;44792;52.760;6.726;2023-06-14T08:07:09;21.60;86.90
59007;DHT22;44792;52.760;6.726;2023-06-14T08:09:36;21.60;84.80
59007;DHT22;44792;52.760;6.726;2023-06-14T08:12:06;21.60;84.40
59007;DHT22;44792;52.760;6.726;2023-06-14T08:14:39;21.60;85.50
59007;DHT22;44792;52.760;6.726;2023-06-14T08:17:05;21.50;86.50
59007;DHT22;44792;52.760;6.726;2023-06-14T08:19:31;21.50;85.00
59007;DHT22;44792;52.760;6.726;2023-06-14T08:21:56;21.70;86.10
59007;DHT22;44792;52.760;6.726;2023-06-14T08:24:22;21.60;85.40
59007;DHT22;44792;52.760;6.726;2023-06-14T08:26:53;21.70;85.80
59007;DHT22;44792;52.760;6.726;2023-06-14T08:29:19;21.80;84.50
59007;DHT22;44792;52.760;6.726;2023-06-14T08:31:45;21.90;83.90
59007;DHT22;44792;52.760;6.726;2023-06-14T08:34:11;22.00;84.10
59007;DHT22;44792;52.760;6.726;2023-06-14T08:36:36;22.00;84.00
59007;DHT22;44792;52.760;6.726;2023-06-14T08:39:02;22.10;83.40
59007;DHT22;44792;52.760;6.726;2023-06-14T08:41:29;22.30;84.60
59007;DHT22;44792;52.760;6.726;2023-06-14T08:43:55;22.20;82.90
59007;DHT22;44792;52.760;6.726;2023-06-14T08:46:26;22.20;82.90
59007;DHT22;44792;52.760;6.726;2023-06-14T08:48:55;22.10;81.40
59007;DHT22;44792;52.760;6.726;2023-06-14T08:51:25;22.10;81.90
59007;DHT22;44792;52.760;6.726;2023-06-14T08:53:54;22.10;82.90
59007;DHT22;44792;52.760;6.726;2023-06-14T08:56:27;22.10;82.40
59007;DHT22;44792;52.760;6.726;2023-06-14T08:58:54;22.30;83.40
59007;DHT22;44792;52.760;6.726;2023-06-14T09:01:20;22.20;83.20
59007;DHT22;44792;52.760;6.726;2023-06-14T09:03:47;22.20;82.40
59007;DHT22;44792;52.760;6.726;2023-06-14T09:06:14;22.30;82.40
59007;DHT22;44792;52.760;6.726;2023-06-14T09:08:45;22.40;82.60
59007;DHT22;44792;52.760;6.726;2023-06-14T09:11:13;22.60;82.50
59007;DHT22;44792;52.760;6.726;2023-06-14T09:13:40;22.50;81.50
59007;DHT22;44792;52.760;6.726;2023-06-14T09:16:06;22.50;81.60
59007;DHT22;44792;52.760;6.726;2023-06-14T09:18:36;22.40;81.00
59007;DHT22;44792;52.760;6.726;2023-06-14T09:21:03;22.40;79.90
59007;DHT22;44792;52.760;6.726;2023-06-14T09:23:28;22.40;82.20
59007;DHT22;44792;52.760;6.726;2023-06-14T09:25:54;22.30;79.50
59007;DHT22;44792;52.760;6.726;2023-06-14T09:28:20;22.50;81.90
59007;DHT22;44792;52.760;6.726;2023-06-14T09:30:48;22.60;82.00
59007;DHT22;44792;52.760;6.726;2023-06-14T09:33:17;22.50;80.40
59007;DHT22;44792;52.760;6.726;2023-06-14T09:35:46;22.70;80.80
59007;DHT22;44792;52.760;6.726;2023-06-14T09:38:12;22.70;79.70
59007;DHT22;44792;52.760;6.726;2023-06-14T09:40:37;22.80;79.70
59007;DHT22;44792;52.760;6.726;2023-06-14T09:43:07;22.60;78.90
59007;DHT22;44792;52.760;6.726;2023-06-14T09:45:35;22.60;79.90
59007;DHT22;44792;52.760;6.726;2023-06-14T09:48:02;22.50;78.90
59007;DHT22;44792;52.760;6.726;2023-06-14T09:50:28;22.60;79.50
59007;DHT22;44792;52.760;6.726;2023-06-14T09:52:58;22.70;80.40
59007;DHT22;44792;52.760;6.726;2023-06-14T09:55:28;23.00;78.50
59007;DHT22;44792;52.760;6.726;2023-06-14T09:57:57;22.90;78.50
59007;DHT22;44792;52.760;6.726;2023-06-14T10:00:26;22.90;77.10
59007;DHT22;44792;52.760;6.726;2023-06-14T10:02:54;22.80;77.20
59007;DHT22;44792;52.760;6.726;2023-06-14T10:05:27;22.90;77.90
59007;DHT22;44792;52.760;6.726;2023-06-14T10:08:00;23.10;78.90
59007;DHT22;44792;52.760;6.726;2023-06-14T10:10:29;23.00;77.40
59007;DHT22;44792;52.760;6.726;2023-06-14T10:12:56;23.00;77.50
59007;DHT22;44792;52.760;6.726;2023-06-14T10:15:30;23.00;77.50
59007;DHT22;44792;52.760;6.726;2023-06-14T10:18:12;22.90;77.90
59007;DHT22;44792;52.760;6.726;2023-06-14T10:20:55;23.20;78.40
59007;DHT22;44792;52.760;6.726;2023-06-14T10:23:23;23.20;79.10
59007;DHT22;44792;52.760;6.726;2023-06-14T10:25:54;23.10;77.80
59007;DHT22;44792;52.760;6.726;2023-06-14T10:28:22;23.30;79.20
59007;DHT22;44792;52.760;6.726;2023-06-14T10:31:08;23.30;77.50
59007;DHT22;44792;52.760;6.726;2023-06-14T10:36:28;23.50;79.20
59007;DHT22;44792;52.760;6.726;2023-06-14T10:41:29;23.30;78.80
59007;DHT22;44792;52.760;6.726;2023-06-14T10:46:40;23.70;77.40
59007;DHT22;44792;52.760;6.726;2023-06-14T10:49:06;23.80;78.40
59007;DHT22;44792;52.760;6.726;2023-06-14T10:51:40;23.90;78.80
59007;DHT22;44792;52.760;6.726;2023-06-14T10:54:13;23.80;77.50
59007;DHT22;44792;52.760;6.726;2023-06-14T10:56:49;23.60;78.40
59007;DHT22;44792;52.760;6.726;2023-06-14T10:59:17;23.80;77.80
59007;DHT22;44792;52.760;6.726;2023-06-14T11:04:20;23.80;76.50
59007;DHT22;44792;52.760;6.726;2023-06-14T11:06:47;24.00;77.40
59007;DHT22;44792;52.760;6.726;2023-06-14T11:11:58;23.80;77.90
59007;DHT22;44792;52.760;6.726;2023-06-14T11:14:25;23.80;77.70
59007;DHT22;44792;52.760;6.726;2023-06-14T11:16:51;23.80;76.70
59007;DHT22;44792;52.760;6.726;2023-06-14T11:19:16;23.70;76.80
59007;DHT22;44792;52.760;6.726;2023-06-14T11:21:48;23.80;76.60
59007;DHT22;44792;52.760;6.726;2023-06-14T11:24:14;23.90;78.10
59007;DHT22;44792;52.760;6.726;2023-06-14T11:26:40;23.70;77.20
59007;DHT22;44792;52.760;6.726;2023-06-14T11:29:06;23.80;76.70
59007;DHT22;44792;52.760;6.726;2023-06-14T11:31:32;23.70;77.50
59007;DHT22;44792;52.760;6.726;2023-06-14T11:34:01;23.70;77.50
59007;DHT22;44792;52.760;6.726;2023-06-14T11:36:27;23.80;77.80
59007;DHT22;44792;52.760;6.726;2023-06-14T11:39:05;23.60;76.70
59007;DHT22;44792;52.760;6.726;2023-06-14T11:41:34;23.70;78.10
59007;DHT22;44792;52.760;6.726;2023-06-14T11:44:01;24.00;78.30
59007;DHT22;44792;52.760;6.726;2023-06-14T11:46:27;24.00;77.70
59007;DHT22;44792;52.760;6.726;2023-06-14T11:48:53;23.90;77.30
59007;DHT22;44792;52.760;6.726;2023-06-14T11:51:19;23.80;77.90
59007;DHT22;44792;52.760;6.726;2023-06-14T11:53:46;23.80;76.10
59007;DHT22;44792;52.760;6.726;2023-06-14T11:56:12;23.80;77.40
59007;DHT22;44792;52.760;6.726;2023-06-14T11:58:38;23.70;77.40
59007;DHT22;44792;52.760;6.726;2023-06-14T12:01:04;23.70;77.80
59007;DHT22;44792;52.760;6.726;2023-06-14T12:03:30;23.70;77.50
59007;DHT22;44792;52.760;6.726;2023-06-14T12:06:07;23.80;78.00
59007;DHT22;44792;52.760;6.726;2023-06-14T12:08:37;23.80;79.10
59007;DHT22;44792;52.760;6.726;2023-06-14T12:11:13;23.80;78.10
59007;DHT22;44792;52.760;6.726;2023-06-14T12:13:39;24.00;79.00
59007;DHT22;44792;52.760;6.726;2023-06-14T12:16:07;24.10;79.10
59007;DHT22;44792;52.760;6.726;2023-06-14T12:18:38;24.10;78.80
59007;DHT22;44792;52.760;6.726;2023-06-14T12:21:05;24.00;78.20
59007;DHT22;44792;52.760;6.726;2023-06-14T12:26:16;23.90;78.30
59007;DHT22;44792;52.760;6.726;2023-06-14T12:28:44;24.00;79.00
59007;DHT22;44792;52.760;6.726;2023-06-14T12:31:11;24.00;78.40
59007;DHT22;44792;52.760;6.726;2023-06-14T12:33:39;24.00;78.50
59007;DHT22;44792;52.760;6.726;2023-06-14T12:36:06;24.00;78.10
59007;DHT22;44792;52.760;6.726;2023-06-14T12:38:35;24.00;78.30
59007;DHT22;44792;52.760;6.726;2023-06-14T12:41:01;24.00;79.30
59007;DHT22;44792;52.760;6.726;2023-06-14T12:43:27;24.20;79.30
59007;DHT22;44792;52.760;6.726;2023-06-14T12:45:53;24.10;79.10
59007;DHT22;44792;52.760;6.726;2023-06-14T12:48:19;24.00;79.00
59007;DHT22;44792;52.760;6.726;2023-06-14T12:50:45;24.10;79.00
59007;DHT22;44792;52.760;6.726;2023-06-14T12:53:11;24.20;79.10
59007;DHT22;44792;52.760;6.726;2023-06-14T12:55:37;24.20;79.70
59007;DHT22;44792;52.760;6.726;2023-06-14T12:58:03;24.10;78.20
59007;DHT22;44792;52.760;6.726;2023-06-14T13:00:29;24.20;79.00
59007;DHT22;44792;52.760;6.726;2023-06-14T13:02:56;24.40;79.20
59007;DHT22;44792;52.760;6.726;2023-06-14T13:05:23;24.40;79.10
59007;DHT22;44792;52.760;6.726;2023-06-14T13:07:49;24.50;78.40
59007;DHT22;44792;52.760;6.726;2023-06-14T13:10:16;24.40;78.50
59007;DHT22;44792;52.760;6.726;2023-06-14T13:12:42;24.60;79.30
59007;DHT22;44792;52.760;6.726;2023-06-14T13:15:08;24.60;77.40
59007;DHT22;44792;52.760;6.726;2023-06-14T13:17:35;24.60;79.20
59007;DHT22;44792;52.760;6.726;2023-06-14T13:20:07;24.40;78.40
59007;DHT22;44792;52.760;6.726;2023-06-14T13:22:34;24.50;79.10
59007;DHT22;44792;52.760;6.726;2023-06-14T13:25:01;24.50;78.10
59007;DHT22;44792;52.760;6.726;2023-06-14T13:27:27;24.50;78.60
59007;DHT22;44792;52.760;6.726;2023-06-14T13:29:53;24.60;77.90
59007;DHT22;44792;52.760;6.726;2023-06-14T13:32:21;24.60;78.00
59007;DHT22;44792;52.760;6.726;2023-06-14T13:34:47;24.60;80.30
59007;DHT22;44792;52.760;6.726;2023-06-14T13:37:13;24.60;78.00
59007;DHT22;44792;52.760;6.726;2023-06-14T13:39:42;24.60;78.40
59007;DHT22;44792;52.760;6.726;2023-06-14T13:42:07;24.50;78.40
59007;DHT22;44792;52.760;6.726;2023-06-14T13:44:33;24.60;77.90
59007;DHT22;44792;52.760;6.726;2023-06-14T13:46:59;24.60;77.80
59007;DHT22;44792;52.760;6.726;2023-06-14T13:49:25;24.50;78.00
59007;DHT22;44792;52.760;6.726;2023-06-14T13:51:51;24.60;78.80
59007;DHT22;44792;52.760;6.726;2023-06-14T13:54:20;24.70;78.70
59007;DHT22;44792;52.760;6.726;2023-06-14T13:56:47;24.70;79.20
59007;DHT22;44792;52.760;6.726;2023-06-14T13:59:12;24.90;79.30
59007;DHT22;44792;52.760;6.726;2023-06-14T14:01:39;24.80;77.80
59007;DHT22;44792;52.760;6.726;2023-06-14T14:04:04;24.90;78.80
59007;DHT22;44792;52.760;6.726;2023-06-14T14:06:31;24.90;77.60
59007;DHT22;44792;52.760;6.726;2023-06-14T14:08:57;24.90;77.40
59007;DHT22;44792;52.760;6.726;2023-06-14T14:11:22;25.00;78.30
59007;DHT22;44792;52.760;6.726;2023-06-14T14:13:48;25.00;78.10
59007;DHT22;44792;52.760;6.726;2023-06-14T14:16:14;25.10;78.90
59007;DHT22;44792;52.760;6.726;2023-06-14T14:18:40;25.00;77.70
59007;DHT22;44792;52.760;6.726;2023-06-14T14:21:06;25.10;77.70
59007;DHT22;44792;52.760;6.726;2023-06-14T14:23:32;25.30;78.20
59007;DHT22;44792;52.760;6.726;2023-06-14T14:25:58;25.10;76.70
59007;DHT22;44792;52.760;6.726;2023-06-14T14:28:23;25.00;77.10
59007;DHT22;44792;52.760;6.726;2023-06-14T14:30:49;25.10;77.70
59007;DHT22;44792;52.760;6.726;2023-06-14T14:33:15;24.80;77.50
59007;DHT22;44792;52.760;6.726;2023-06-14T14:35:43;24.70;77.50
59007;DHT22;44792;52.760;6.726;2023-06-14T14:38:11;24.50;77.50
59007;DHT22;44792;52.760;6.726;2023-06-14T14:40:37;24.50;77.60
59007;DHT22;44792;52.760;6.726;2023-06-14T14:43:03;24.70;78.30
59007;DHT22;44792;52.760;6.726;2023-06-14T14:45:29;24.80;77.80
59007;DHT22;44792;52.760;6.726;2023-06-14T14:47:54;24.90;78.20
59007;DHT22;44792;52.760;6.726;2023-06-14T14:50:20;25.00;78.10
59007;DHT22;44792;52.760;6.726;2023-06-14T14:52:46;24.90;77.50
59007;DHT22;44792;52.760;6.726;2023-06-14T14:55:11;24.70;76.80
59007;DHT22;44792;52.760;6.726;2023-06-14T14:57:37;24.70;77.50
59007;DHT22;44792;52.760;6.726;2023-06-14T15:00:04;24.70;77.70
59007;DHT22;44792;52.760;6.726;2023-06-14T15:02:31;24.70;78.10
59007;DHT22;44792;52.760;6.726;2023-06-14T15:04:56;24.80;77.70
59007;DHT22;44792;52.760;6.726;2023-06-14T15:07:30;24.80;78.30
59007;DHT22;44792;52.760;6.726;2023-06-14T15:09:57;24.90;77.10
59007;DHT22;44792;52.760;6.726;2023-06-14T15:12:23;24.70;76.30
59007;DHT22;44792;52.760;6.726;2023-06-14T15:14:52;24.60;77.20
59007;DHT22;44792;52.760;6.726;2023-06-14T15:17:21;24.60;77.40
59007;DHT22;44792;52.760;6.726;2023-06-14T15:19:47;24.70;77.50
59007;DHT22;44792;52.760;6.726;2023-06-14T15:22:14;24.80;77.80
59007;DHT22;44792;52.760;6.726;2023-06-14T15:24:43;24.80;77.30
59007;DHT22;44792;52.760;6.726;2023-06-14T15:27:11;24.90;77.20
59007;DHT22;44792;52.760;6.726;2023-06-14T15:29:38;24.80;77.40
59007;DHT22;44792;52.760;6.726;2023-06-14T15:32:05;24.80;77.10
59007;DHT22;44792;52.760;6.726;2023-06-14T15:34:31;24.80;76.50
59007;DHT22;44792;52.760;6.726;2023-06-14T15:36:57;24.90;77.40
59007;DHT22;44792;52.760;6.726;2023-06-14T15:39:23;24.90;77.00
59007;DHT22;44792;52.760;6.726;2023-06-14T15:41:50;25.00;76.80
59007;DHT22;44792;52.760;6.726;2023-06-14T15:44:17;25.00;76.80
59007;DHT22;44792;52.760;6.726;2023-06-14T15:46:43;25.10;76.60
59007;DHT22;44792;52.760;6.726;2023-06-14T15:49:09;25.20;77.20
59007;DHT22;44792;52.760;6.726;2023-06-14T15:51:36;25.20;77.30